sensor_id;sensor_type;location;lat;lon;timestamp;temperature;humidity
70593;DHT22;58294;42.988;20.338;2023-03-21T00:00:17;231.00;1305.60
70593;DHT22;58294;42.988;20.338;2023-03-21T00:02:43;231.00;1254.40
70593;DHT22;58294;42.988;20.338;2023-03-21T00:05:08;231.00;1280.00
70593;DHT22;58294;42.988;20.338;2023-03-21T00:07:34;231.00;1280.00
70593;DHT22;58294;42.988;20.338;2023-03-21T00:09:59;231.00;1280.00
70593;DHT22;58294;42.988;20.338;2023-03-21T00:12:25;230.90;1280.00
70593;DHT22;58294;42.988;20.338;2023-03-21T00:14:51;230.90;1280.00
70593;DHT22;58294;42.988;20.338;2023-03-21T00:17:18;230.90;1305.60
70593;DHT22;58294;42.988;20.338;2023-03-21T00:19:46;230.90;1305.60
70593;DHT22;58294;42.988;20.338;2023-03-21T00:22:13;230.90;1305.60
70593;DHT22;58294;42.988;20.338;2023-03-21T00:24:38;230.90;1305.60
70593;DHT22;58294;42.988;20.338;2023-03-21T00:27:04;230.90;1305.60
70593;DHT22;58294;42.988;20.338;2023-03-21T00:29:30;231.00;1305.60
70593;DHT22;58294;42.988;20.338;2023-03-21T00:31:55;231.00;1305.60
70593;DHT22;58294;42.988;20.338;2023-03-21T00:34:21;231.00;1331.20
70593;DHT22;58294;42.988;20.338;2023-03-21T00:36:47;231.10;1331.20
70593;DHT22;58294;42.988;20.338;2023-03-21T00:39:12;231.10;1331.20
70593;DHT22;58294;42.988;20.338;2023-03-21T00:41:38;231.10;1331.20
70593;DHT22;58294;42.988;20.338;2023-03-21T00:44:04;231.10;1331.20
70593;DHT22;58294;42.988;20.338;2023-03-21T00:46:29;231.10;1331.20
70593;DHT22;58294;42.988;20.338;2023-03-21T00:48:55;231.20;1331.20
70593;DHT22;58294;42.988;20.338;2023-03-21T00:51:21;231.20;1305.60
70593;DHT22;58294;42.988;20.338;2023-03-21T00:53:51;231.20;1305.60
70593;DHT22;58294;42.988;20.338;2023-03-21T00:56:17;231.20;1305.60
70593;DHT22;58294;42.988;20.338;2023-03-21T00:58:43;231.30;1331.20
70593;DHT22;58294;42.988;20.338;2023-03-21T01:01:08;231.30;1305.60
70593;DHT22;58294;42.988;20.338;2023-03-21T01:03:34;231.30;1305.60
70593;DHT22;58294;42.988;20.338;2023-03-21T01:06:08;231.20;1305.60
70593;DHT22;58294;42.988;20.338;2023-03-21T01:08:38;231.20;1331.20
70593;DHT22;58294;42.988;20.338;2023-03-21T01:11:06;231.20;1305.60
70593;DHT22;58294;42.988;20.338;2023-03-21T01:13:32;231.20;1331.20
70593;DHT22;58294;42.988;20.338;2023-03-21T01:15:57;231.20;1305.60
70593;DHT22;58294;42.988;20.338;2023-03-21T01:18:25;231.20;1331.20
70593;DHT22;58294;42.988;20.338;2023-03-21T01:20:52;231.20;1331.20
70593;DHT22;58294;42.988;20.338;2023-03-21T01:23:18;231.20;1331.20
70593;DHT22;58294;42.988;20.338;2023-03-21T01:25:44;231.20;1331.20
70593;DHT22;58294;42.988;20.338;2023-03-21T01:28:11;231.10;1331.20
70593;DHT22;58294;42.988;20.338;2023-03-21T01:30:36;231.10;1356.80
70593;DHT22;58294;42.988;20.338;2023-03-21T01:33:02;231.10;1356.80
70593;DHT22;58294;42.988;20.338;2023-03-21T01:35:28;231.10;1356.80
70593;DHT22;58294;42.988;20.338;2023-03-21T01:37:53;231.10;1331.20
70593;DHT22;58294;42.988;20.338;2023-03-21T01:40:23;231.10;1331.20
70593;DHT22;58294;42.988;20.338;2023-03-21T01:42:49;231.10;1331.20
70593;DHT22;58294;42.988;20.338;2023-03-21T01:47:59;231.00;1331.20
70593;DHT22;58294;42.988;20.338;2023-03-21T01:50:25;231.00;1356.80
70593;DHT22;58294;42.988;20.338;2023-03-21T01:52:51;230.90;1331.20
70593;DHT22;58294;42.988;20.338;2023-03-21T01:55:17;230.90;1356.80
70593;DHT22;58294;42.988;20.338;2023-03-21T01:57:46;230.90;1356.80
70593;DHT22;58294;42.988;20.338;2023-03-21T02:00:13;230.90;1356.80
70593;DHT22;58294;42.988;20.338;2023-03-21T02:02:41;230.90;1356.80
70593;DHT22;58294;42.988;20.338;2023-03-21T02:05:28;230.90;1382.40
70593;DHT22;58294;42.988;20.338;2023-03-21T02:07:55;230.90;1382.40
70593;DHT22;58294;42.988;20.338;2023-03-21T02:10:21;230.90;1382.40
70593;DHT22;58294;42.988;20.338;2023-03-21T02:12:46;230.90;1382.40
70593;DHT22;58294;42.988;20.338;2023-03-21T02:15:12;230.90;1382.40
70593;DHT22;58294;42.988;20.338;2023-03-21T02:17:40;230.90;1356.80
70593;DHT22;58294;42.988;20.338;2023-03-21T02:26:03;230.80;1382.40
70593;DHT22;58294;42.988;20.338;2023-03-21T02:30:59;230.80;1356.80
70593;DHT22;58294;42.988;20.338;2023-03-21T02:43:53;230.60;1382.40
70593;DHT22;58294;42.988;20.338;2023-03-21T02:46:37;230.50;1382.40
70593;DHT22;58294;42.988;20.338;2023-03-21T02:49:15;230.50;1382.40
70593;DHT22;58294;42.988;20.338;2023-03-21T02:51:41;230.40;1356.80
70593;DHT22;58294;42.988;20.338;2023-03-21T02:54:14;205.70;1382.40
70593;DHT22;58294;42.988;20.338;2023-03-21T02:56:41;205.70;1408.00
70593;DHT22;58294;42.988;20.338;2023-03-21T02:59:07;205.70;1459.20
70593;DHT22;58294;42.988;20.338;2023-03-21T03:01:33;205.60;1408.00
70593;DHT22;58294;42.988;20.338;2023-03-21T03:03:59;205.50;1433.60
70593;DHT22;58294;42.988;20.338;2023-03-21T03:06:30;205.50;1408.00
70593;DHT22;58294;42.988;20.338;2023-03-21T03:11:36;205.50;1408.00
70593;DHT22;58294;42.988;20.338;2023-03-21T03:15:05;205.50;1433.60
70593;DHT22;58294;42.988;20.338;2023-03-21T03:19:35;205.50;1433.60
70593;DHT22;58294;42.988;20.338;2023-03-21T03:22:08;205.50;1433.60
70593;DHT22;58294;42.988;20.338;2023-03-21T03:24:56;205.40;1459.20
70593;DHT22;58294;42.988;20.338;2023-03-21T03:27:25;205.50;1459.20
70593;DHT22;58294;42.988;20.338;2023-03-21T03:29:53;205.50;1459.20
70593;DHT22;58294;42.988;20.338;2023-03-21T03:32:41;205.50;1459.20
70593;DHT22;58294;42.988;20.338;2023-03-21T03:35:09;205.60;1459.20
70593;DHT22;58294;42.988;20.338;2023-03-21T03:37:36;205.70;1484.80
70593;DHT22;58294;42.988;20.338;2023-03-21T03:40:06;205.70;1484.80
70593;DHT22;58294;42.988;20.338;2023-03-21T03:42:35;230.40;1459.20
70593;DHT22;58294;42.988;20.338;2023-03-21T03:45:03;205.70;1484.80
70593;DHT22;58294;42.988;20.338;2023-03-21T03:47:44;205.70;1484.80
70593;DHT22;58294;42.988;20.338;2023-03-21T03:50:13;205.70;1459.20
70593;DHT22;58294;42.988;20.338;2023-03-21T03:52:43;230.40;1459.20
70593;DHT22;58294;42.988;20.338;2023-03-21T03:55:11;230.40;1459.20
70593;DHT22;58294;42.988;20.338;2023-03-21T03:57:38;230.40;1484.80
70593;DHT22;58294;42.988;20.338;2023-03-21T04:00:04;230.50;1484.80
70593;DHT22;58294;42.988;20.338;2023-03-21T04:02:36;230.50;1484.80
70593;DHT22;58294;42.988;20.338;2023-03-21T04:05:02;230.50;1484.80
70593;DHT22;58294;42.988;20.338;2023-03-21T04:07:28;230.50;1459.20
70593;DHT22;58294;42.988;20.338;2023-03-21T04:09:54;230.50;1459.20
70593;DHT22;58294;42.988;20.338;2023-03-21T04:12:19;230.50;1459.20
70593;DHT22;58294;42.988;20.338;2023-03-21T04:14:45;230.60;1459.20
70593;DHT22;58294;42.988;20.338;2023-03-21T04:17:10;230.50;1459.20
70593;DHT22;58294;42.988;20.338;2023-03-21T04:19:36;230.50;1459.20
70593;DHT22;58294;42.988;20.338;2023-03-21T04:22:02;230.60;1459.20
70593;DHT22;58294;42.988;20.338;2023-03-21T04:24:27;230.60;1459.20
70593;DHT22;58294;42.988;20.338;2023-03-21T04:27:00;230.60;1459.20
70593;DHT22;58294;42.988;20.338;2023-03-21T04:29:26;230.60;1459.20
70593;DHT22;58294;42.988;20.338;2023-03-21T04:31:54;230.60;1459.20
70593;DHT22;58294;42.988;20.338;2023-03-21T04:34:20;230.50;1459.20
70593;DHT22;58294;42.988;20.338;2023-03-21T04:36:48;230.50;1459.20
70593;DHT22;58294;42.988;20.338;2023-03-21T04:39:15;230.50;1459.20
70593;DHT22;58294;42.988;20.338;2023-03-21T04:41:42;230.40;1459.20
70593;DHT22;58294;42.988;20.338;2023-03-21T04:44:08;230.40;1459.20
70593;DHT22;58294;42.988;20.338;2023-03-21T04:46:34;230.40;1459.20
70593;DHT22;58294;42.988;20.338;2023-03-21T04:49:00;205.70;1459.20
70593;DHT22;58294;42.988;20.338;2023-03-21T04:51:25;205.70;1484.80
70593;DHT22;58294;42.988;20.338;2023-03-21T04:53:51;205.70;1484.80
70593;DHT22;58294;42.988;20.338;2023-03-21T04:56:17;205.70;1484.80
70593;DHT22;58294;42.988;20.338;2023-03-21T04:58:42;230.40;1484.80
70593;DHT22;58294;42.988;20.338;2023-03-21T05:01:08;230.40;1484.80
70593;DHT22;58294;42.988;20.338;2023-03-21T05:03:34;230.50;1484.80
70593;DHT22;58294;42.988;20.338;2023-03-21T05:06:07;230.50;1510.40
70593;DHT22;58294;42.988;20.338;2023-03-21T05:08:33;230.60;1510.40
70593;DHT22;58294;42.988;20.338;2023-03-21T05:10:59;230.60;1484.80
70593;DHT22;58294;42.988;20.338;2023-03-21T05:13:25;230.60;1484.80
70593;DHT22;58294;42.988;20.338;2023-03-21T05:15:50;230.60;1484.80
70593;DHT22;58294;42.988;20.338;2023-03-21T05:18:16;230.70;1484.80
70593;DHT22;58294;42.988;20.338;2023-03-21T05:20:49;230.70;1484.80
70593;DHT22;58294;42.988;20.338;2023-03-21T05:23:19;230.70;1484.80
70593;DHT22;58294;42.988;20.338;2023-03-21T05:25:44;230.70;1484.80
70593;DHT22;58294;42.988;20.338;2023-03-21T05:28:10;230.70;1484.80
70593;DHT22;58294;42.988;20.338;2023-03-21T05:30:36;230.70;1484.80
70593;DHT22;58294;42.988;20.338;2023-03-21T05:33:01;230.70;1484.80
70593;DHT22;58294;42.988;20.338;2023-03-21T05:35:27;230.70;1484.80
70593;DHT22;58294;42.988;20.338;2023-03-21T05:37:52;230.70;1484.80
70593;DHT22;58294;42.988;20.338;2023-03-21T05:40:18;230.80;1484.80
70593;DHT22;58294;42.988;20.338;2023-03-21T05:42:45;230.80;1484.80
70593;DHT22;58294;42.988;20.338;2023-03-21T05:45:11;230.90;1484.80
70593;DHT22;58294;42.988;20.338;2023-03-21T05:47:37;230.90;1510.40
70593;DHT22;58294;42.988;20.338;2023-03-21T05:50:03;231.00;1510.40
70593;DHT22;58294;42.988;20.338;2023-03-21T05:52:28;231.00;1484.80
70593;DHT22;58294;42.988;20.338;2023-03-21T05:54:54;231.00;1484.80
70593;DHT22;58294;42.988;20.338;2023-03-21T05:57:20;231.00;1510.40
70593;DHT22;58294;42.988;20.338;2023-03-21T05:59:45;231.10;1510.40
70593;DHT22;58294;42.988;20.338;2023-03-21T06:02:11;231.10;1510.40
70593;DHT22;58294;42.988;20.338;2023-03-21T06:04:37;231.10;1536.00
70593;DHT22;58294;42.988;20.338;2023-03-21T06:07:02;231.10;1536.00
70593;DHT22;58294;42.988;20.338;2023-03-21T06:09:28;231.20;1536.00
70593;DHT22;58294;42.988;20.338;2023-03-21T06:11:54;231.20;1510.40
70593;DHT22;58294;42.988;20.338;2023-03-21T06:14:20;231.30;1510.40
70593;DHT22;58294;42.988;20.338;2023-03-21T06:16:46;231.30;1510.40
70593;DHT22;58294;42.988;20.338;2023-03-21T06:19:11;256.00;1536.00
70593;DHT22;58294;42.988;20.338;2023-03-21T06:21:37;256.00;1510.40
70593;DHT22;58294;42.988;20.338;2023-03-21T06:24:03;256.10;1510.40
70593;DHT22;58294;42.988;20.338;2023-03-21T06:26:29;256.20;1510.40
70593;DHT22;58294;42.988;20.338;2023-03-21T06:28:54;256.30;1510.40
70593;DHT22;58294;42.988;20.338;2023-03-21T06:31:20;256.30;1510.40
70593;DHT22;58294;42.988;20.338;2023-03-21T06:33:49;256.40;1484.80
70593;DHT22;58294;42.988;20.338;2023-03-21T06:36:16;256.50;1484.80
70593;DHT22;58294;42.988;20.338;2023-03-21T06:38:42;256.60;1484.80
70593;DHT22;58294;42.988;20.338;2023-03-21T06:41:07;256.60;1459.20
70593;DHT22;58294;42.988;20.338;2023-03-21T06:43:33;256.60;1459.20
70593;DHT22;58294;42.988;20.338;2023-03-21T06:45:59;256.60;1484.80
70593;DHT22;58294;42.988;20.338;2023-03-21T06:48:25;256.60;1484.80
70593;DHT22;58294;42.988;20.338;2023-03-21T06:50:51;256.70;1484.80
70593;DHT22;58294;42.988;20.338;2023-03-21T06:53:18;256.80;1484.80
70593;DHT22;58294;42.988;20.338;2023-03-21T06:55:48;256.90;1484.80
70593;DHT22;58294;42.988;20.338;2023-03-21T06:58:14;256.90;1459.20
70593;DHT22;58294;42.988;20.338;2023-03-21T07:00:40;281.60;1484.80
70593;DHT22;58294;42.988;20.338;2023-03-21T07:03:06;281.60;1484.80
70593;DHT22;58294;42.988;20.338;2023-03-21T07:05:31;281.60;1510.40
70593;DHT22;58294;42.988;20.338;2023-03-21T07:07:59;281.60;1510.40
70593;DHT22;58294;42.988;20.338;2023-03-21T07:10:25;281.70;1510.40
70593;DHT22;58294;42.988;20.338;2023-03-21T07:12:51;281.80;1510.40
70593;DHT22;58294;42.988;20.338;2023-03-21T07:15:16;281.90;1510.40
70593;DHT22;58294;42.988;20.338;2023-03-21T07:17:42;282.00;1510.40
70593;DHT22;58294;42.988;20.338;2023-03-21T07:20:08;282.00;1510.40
70593;DHT22;58294;42.988;20.338;2023-03-21T07:22:34;282.10;1510.40
70593;DHT22;58294;42.988;20.338;2023-03-21T07:25:00;282.10;1484.80
70593;DHT22;58294;42.988;20.338;2023-03-21T07:27:25;282.20;1484.80
70593;DHT22;58294;42.988;20.338;2023-03-21T07:29:51;282.20;1484.80
70593;DHT22;58294;42.988;20.338;2023-03-21T07:32:17;282.30;1484.80
70593;DHT22;58294;42.988;20.338;2023-03-21T07:34:42;282.30;1459.20
70593;DHT22;58294;42.988;20.338;2023-03-21T07:37:08;282.40;1459.20
70593;DHT22;58294;42.988;20.338;2023-03-21T07:39:34;282.40;1484.80
70593;DHT22;58294;42.988;20.338;2023-03-21T07:42:00;282.50;1484.80
70593;DHT22;58294;42.988;20.338;2023-03-21T07:44:26;307.20;1510.40
70593;DHT22;58294;42.988;20.338;2023-03-21T07:46:51;307.20;1510.40
70593;DHT22;58294;42.988;20.338;2023-03-21T07:49:17;307.20;1536.00
70593;DHT22;58294;42.988;20.338;2023-03-21T07:51:42;307.40;1536.00
70593;DHT22;58294;42.988;20.338;2023-03-21T07:54:08;307.40;1484.80
70593;DHT22;58294;42.988;20.338;2023-03-21T07:56:34;307.60;1510.40
70593;DHT22;58294;42.988;20.338;2023-03-21T07:58:59;307.70;1484.80
70593;DHT22;58294;42.988;20.338;2023-03-21T08:01:25;307.80;1484.80
70593;DHT22;58294;42.988;20.338;2023-03-21T08:03:51;307.90;1484.80
70593;DHT22;58294;42.988;20.338;2023-03-21T08:06:21;307.90;1484.80
70593;DHT22;58294;42.988;20.338;2023-03-21T08:08:47;308.00;1459.20
70593;DHT22;58294;42.988;20.338;2023-03-21T08:11:12;308.00;1433.60
70593;DHT22;58294;42.988;20.338;2023-03-21T08:13:38;308.10;1459.20
70593;DHT22;58294;42.988;20.338;2023-03-21T08:16:04;308.10;1459.20
70593;DHT22;58294;42.988;20.338;2023-03-21T08:18:31;332.80;1484.80
70593;DHT22;58294;42.988;20.338;2023-03-21T08:20:57;332.80;1484.80
70593;DHT22;58294;42.988;20.338;2023-03-21T08:23:22;332.80;1484.80
70593;DHT22;58294;42.988;20.338;2023-03-21T08:25:52;332.80;1484.80
70593;DHT22;58294;42.988;20.338;2023-03-21T08:28:18;333.00;1510.40
70593;DHT22;58294;42.988;20.338;2023-03-21T08:30:44;333.10;1536.00
70593;DHT22;58294;42.988;20.338;2023-03-21T08:33:09;333.30;1536.00
70593;DHT22;58294;42.988;20.338;2023-03-21T08:35:35;333.50;1484.80
70593;DHT22;58294;42.988;20.338;2023-03-21T08:40:27;358.40;1484.80
70593;DHT22;58294;42.988;20.338;2023-03-21T08:42:52;358.60;1484.80
70593;DHT22;58294;42.988;20.338;2023-03-21T08:45:18;358.70;1459.20
70593;DHT22;58294;42.988;20.338;2023-03-21T08:47:44;358.70;1459.20
70593;DHT22;58294;42.988;20.338;2023-03-21T08:50:11;358.80;1408.00
70593;DHT22;58294;42.988;20.338;2023-03-21T08:52:38;358.80;1408.00
70593;DHT22;58294;42.988;20.338;2023-03-21T08:55:04;358.80;1433.60
70593;DHT22;58294;42.988;20.338;2023-03-21T08:57:29;358.90;1459.20
70593;DHT22;58294;42.988;20.338;2023-03-21T08:59:55;359.00;1433.60
70593;DHT22;58294;42.988;20.338;2023-03-21T09:02:21;359.10;1459.20
70593;DHT22;58294;42.988;20.338;2023-03-21T09:04:46;359.20;1433.60
70593;DHT22;58294;42.988;20.338;2023-03-21T09:07:12;359.20;1433.60
70593;DHT22;58294;42.988;20.338;2023-03-21T09:09:39;359.30;1408.00
70593;DHT22;58294;42.988;20.338;2023-03-21T09:12:06;359.30;1408.00
70593;DHT22;58294;42.988;20.338;2023-03-21T09:14:31;384.00;1408.00
70593;DHT22;58294;42.988;20.338;2023-03-21T09:16:59;384.10;1433.60
70593;DHT22;58294;42.988;20.338;2023-03-21T09:19:24;384.20;1382.40
70593;DHT22;58294;42.988;20.338;2023-03-21T09:21:50;384.10;1356.80
70593;DHT22;58294;42.988;20.338;2023-03-21T09:24:18;384.10;1356.80
70593;DHT22;58294;42.988;20.338;2023-03-21T09:26:44;384.10;1382.40
70593;DHT22;58294;42.988;20.338;2023-03-21T09:29:09;384.10;1382.40
70593;DHT22;58294;42.988;20.338;2023-03-21T09:31:35;384.10;1382.40
70593;DHT22;58294;42.988;20.338;2023-03-21T09:34:01;384.10;1356.80
70593;DHT22;58294;42.988;20.338;2023-03-21T09:36:26;384.00;1356.80
70593;DHT22;58294;42.988;20.338;2023-03-21T09:38:53;359.30;1356.80
70593;DHT22;58294;42.988;20.338;2023-03-21T09:46:44;359.30;1382.40
70593;DHT22;58294;42.988;20.338;2023-03-21T09:51:40;384.00;1408.00
70593;DHT22;58294;42.988;20.338;2023-03-21T09:54:29;384.10;1433.60
70593;DHT22;58294;42.988;20.338;2023-03-21T09:57:00;384.40;1433.60
70593;DHT22;58294;42.988;20.338;2023-03-21T09:59:31;384.60;1433.60
70593;DHT22;58294;42.988;20.338;2023-03-21T10:02:00;384.80;1433.60
70593;DHT22;58294;42.988;20.338;2023-03-21T10:04:27;384.90;1408.00
70593;DHT22;58294;42.988;20.338;2023-03-21T10:06:55;409.60;1408.00
70593;DHT22;58294;42.988;20.338;2023-03-21T10:09:23;409.80;1408.00
70593;DHT22;58294;42.988;20.338;2023-03-21T10:11:55;409.90;1408.00
70593;DHT22;58294;42.988;20.338;2023-03-21T10:14:24;410.00;1382.40
70593;DHT22;58294;42.988;20.338;2023-03-21T10:16:51;410.20;1382.40
70593;DHT22;58294;42.988;20.338;2023-03-21T10:19:19;410.30;1382.40
70593;DHT22;58294;42.988;20.338;2023-03-21T10:21:45;410.30;1382.40
70593;DHT22;58294;42.988;20.338;2023-03-21T10:24:12;410.50;1382.40
70593;DHT22;58294;42.988;20.338;2023-03-21T10:26:38;435.30;1382.40
70593;DHT22;58294;42.988;20.338;2023-03-21T10:29:04;435.30;1408.00
70593;DHT22;58294;42.988;20.338;2023-03-21T10:31:30;435.40;1356.80
70593;DHT22;58294;42.988;20.338;2023-03-21T10:33:56;435.50;1356.80
70593;DHT22;58294;42.988;20.338;2023-03-21T10:36:26;435.60;1331.20
70593;DHT22;58294;42.988;20.338;2023-03-21T10:41:20;435.70;1356.80
70593;DHT22;58294;42.988;20.338;2023-03-21T10:43:46;435.80;1331.20
70593;DHT22;58294;42.988;20.338;2023-03-21T10:46:16;435.70;1280.00
70593;DHT22;58294;42.988;20.338;2023-03-21T10:48:43;435.60;1280.00
70593;DHT22;58294;42.988;20.338;2023-03-21T10:51:14;435.50;1280.00
70593;DHT22;58294;42.988;20.338;2023-03-21T10:53:40;435.40;1280.00
70593;DHT22;58294;42.988;20.338;2023-03-21T10:56:10;435.40;1280.00
70593;DHT22;58294;42.988;20.338;2023-03-21T10:58:45;435.30;1254.40
70593;DHT22;58294;42.988;20.338;2023-03-21T11:01:20;435.30;1280.00
70593;DHT22;58294;42.988;20.338;2023-03-21T11:03:53;410.50;1254.40
70593;DHT22;58294;42.988;20.338;2023-03-21T11:08:46;435.20;1254.40
70593;DHT22;58294;42.988;20.338;2023-03-21T11:11:48;435.20;1280.00
70593;DHT22;58294;42.988;20.338;2023-03-21T11:14:05;410.40;1280.00
70593;DHT22;58294;42.988;20.338;2023-03-21T11:16:39;410.30;1280.00
70593;DHT22;58294;42.988;20.338;2023-03-21T11:19:19;410.30;1280.00
70593;DHT22;58294;42.988;20.338;2023-03-21T11:21:50;410.30;1280.00
70593;DHT22;58294;42.988;20.338;2023-03-21T11:24:16;410.30;1280.00
70593;DHT22;58294;42.988;20.338;2023-03-21T11:26:43;410.30;1280.00
70593;DHT22;58294;42.988;20.338;2023-03-21T11:29:25;410.30;1305.60
70593;DHT22;58294;42.988;20.338;2023-03-21T11:31:51;410.30;1305.60
70593;DHT22;58294;42.988;20.338;2023-03-21T11:34:33;410.30;1305.60
70593;DHT22;58294;42.988;20.338;2023-03-21T11:37:03;410.30;1305.60
70593;DHT22;58294;42.988;20.338;2023-03-21T11:41:58;410.50;1280.00
70593;DHT22;58294;42.988;20.338;2023-03-21T11:44:26;435.30;1305.60
70593;DHT22;58294;42.988;20.338;2023-03-21T11:46:52;435.40;1280.00
70593;DHT22;58294;42.988;20.338;2023-03-21T11:49:19;435.60;1280.00
70593;DHT22;58294;42.988;20.338;2023-03-21T11:51:47;435.60;1254.40
70593;DHT22;58294;42.988;20.338;2023-03-21T12:09:40;435.20;1254.40
70593;DHT22;58294;42.988;20.338;2023-03-21T12:12:55;435.20;1228.80
70593;DHT22;58294;42.988;20.338;2023-03-21T12:22:45;410.30;1254.40
70593;DHT22;58294;42.988;20.338;2023-03-21T12:25:21;410.10;1280.00
70593;DHT22;58294;42.988;20.338;2023-03-21T12:32:56;409.80;1280.00
70593;DHT22;58294;42.988;20.338;2023-03-21T12:35:30;409.70;1280.00
70593;DHT22;58294;42.988;20.338;2023-03-21T12:43:06;409.60;1305.60
70593;DHT22;58294;42.988;20.338;2023-03-21T12:45:37;409.60;1305.60
70593;DHT22;58294;42.988;20.338;2023-03-21T12:50:37;409.70;1356.80
70593;DHT22;58294;42.988;20.338;2023-03-21T12:53:25;409.80;1356.80
70593;DHT22;58294;42.988;20.338;2023-03-21T12:55:52;409.70;1356.80
70593;DHT22;58294;42.988;20.338;2023-03-21T12:58:21;410.00;1331.20
70593;DHT22;58294;42.988;20.338;2023-03-21T13:00:50;410.10;1356.80
70593;DHT22;58294;42.988;20.338;2023-03-21T13:03:22;410.30;1331.20
70593;DHT22;58294;42.988;20.338;2023-03-21T13:06:02;410.10;1305.60
70593;DHT22;58294;42.988;20.338;2023-03-21T13:08:38;410.10;1331.20
70593;DHT22;58294;42.988;20.338;2023-03-21T13:11:06;410.20;1331.20
70593;DHT22;58294;42.988;20.338;2023-03-21T13:15:59;410.30;1331.20
70593;DHT22;58294;42.988;20.338;2023-03-21T13:21:09;410.30;1305.60
70593;DHT22;58294;42.988;20.338;2023-03-21T13:23:37;410.30;1305.60
70593;DHT22;58294;42.988;20.338;2023-03-21T13:26:03;410.20;1305.60
70593;DHT22;58294;42.988;20.338;2023-03-21T13:28:33;410.10;1305.60
70593;DHT22;58294;42.988;20.338;2023-03-21T13:31:33;410.00;1280.00
70593;DHT22;58294;42.988;20.338;2023-03-21T13:33:53;410.00;1305.60
70593;DHT22;58294;42.988;20.338;2023-03-21T13:36:26;409.80;1305.60
70593;DHT22;58294;42.988;20.338;2023-03-21T13:38:53;409.70;1331.20
70593;DHT22;58294;42.988;20.338;2023-03-21T13:41:35;409.70;1331.20
70593;DHT22;58294;42.988;20.338;2023-03-21T13:48:56;409.70;1356.80
70593;DHT22;58294;42.988;20.338;2023-03-21T13:54:01;409.70;1382.40
70593;DHT22;58294;42.988;20.338;2023-03-21T13:56:28;409.70;1356.80
70593;DHT22;58294;42.988;20.338;2023-03-21T13:59:01;409.60;1356.80
70593;DHT22;58294;42.988;20.338;2023-03-21T14:01:34;384.90;1356.80
70593;DHT22;58294;42.988;20.338;2023-03-21T14:04:18;384.80;1331.20
70593;DHT22;58294;42.988;20.338;2023-03-21T14:06:54;384.80;1356.80
70593;DHT22;58294;42.988;20.338;2023-03-21T14:09:26;384.80;1356.80
70593;DHT22;58294;42.988;20.338;2023-03-21T14:11:53;384.80;1356.80
70593;DHT22;58294;42.988;20.338;2023-03-21T14:14:20;384.80;1382.40
70593;DHT22;58294;42.988;20.338;2023-03-21T14:16:46;384.80;1356.80
70593;DHT22;58294;42.988;20.338;2023-03-21T14:19:12;384.80;1382.40
70593;DHT22;58294;42.988;20.338;2023-03-21T14:21:44;384.80;1356.80
70593;DHT22;58294;42.988;20.338;2023-03-21T14:24:11;384.80;1382.40
70593;DHT22;58294;42.988;20.338;2023-03-21T14:26:41;384.80;1382.40
70593;DHT22;58294;42.988;20.338;2023-03-21T14:29:08;384.80;1382.40
70593;DHT22;58294;42.988;20.338;2023-03-21T14:31:34;384.70;1382.40
70593;DHT22;58294;42.988;20.338;2023-03-21T14:34:00;384.80;1382.40
70593;DHT22;58294;42.988;20.338;2023-03-21T14:36:27;384.80;1382.40
70593;DHT22;58294;42.988;20.338;2023-03-21T14:41:29;384.80;1382.40
70593;DHT22;58294;42.988;20.338;2023-03-21T14:44:11;384.80;1382.40
70593;DHT22;58294;42.988;20.338;2023-03-21T14:46:38;384.80;1408.00
70593;DHT22;58294;42.988;20.338;2023-03-21T14:51:37;384.90;1408.00
70593;DHT22;58294;42.988;20.338;2023-03-21T14:54:04;384.90;1408.00
70593;DHT22;58294;42.988;20.338;2023-03-21T14:56:30;384.90;1382.40
70593;DHT22;58294;42.988;20.338;2023-03-21T14:58:57;384.80;1408.00
70593;DHT22;58294;42.988;20.338;2023-03-21T15:01:30;384.70;1382.40
70593;DHT22;58294;42.988;20.338;2023-03-21T15:03:57;384.70;1382.40
70593;DHT22;58294;42.988;20.338;2023-03-21T15:06:24;384.60;1356.80
70593;DHT22;58294;42.988;20.338;2023-03-21T15:08:57;384.60;1382.40
70593;DHT22;58294;42.988;20.338;2023-03-21T15:11:33;384.40;1382.40
70593;DHT22;58294;42.988;20.338;2023-03-21T15:14:00;384.40;1382.40
70593;DHT22;58294;42.988;20.338;2023-03-21T15:16:26;384.40;1382.40
70593;DHT22;58294;42.988;20.338;2023-03-21T15:18:52;384.40;1408.00
70593;DHT22;58294;42.988;20.338;2023-03-21T15:21:19;384.40;1382.40
70593;DHT22;58294;42.988;20.338;2023-03-21T15:23:52;384.40;1408.00
70593;DHT22;58294;42.988;20.338;2023-03-21T15:26:21;384.30;1408.00
70593;DHT22;58294;42.988;20.338;2023-03-21T15:28:49;384.20;1408.00
70593;DHT22;58294;42.988;20.338;2023-03-21T15:31:16;384.30;1408.00
70593;DHT22;58294;42.988;20.338;2023-03-21T15:33:49;384.40;1408.00
70593;DHT22;58294;42.988;20.338;2023-03-21T15:36:18;384.40;1408.00
70593;DHT22;58294;42.988;20.338;2023-03-21T15:38:45;384.30;1408.00
70593;DHT22;58294;42.988;20.338;2023-03-21T15:44:27;384.20;1408.00
70593;DHT22;58294;42.988;20.338;2023-03-21T15:46:54;384.20;1408.00
70593;DHT22;58294;42.988;20.338;2023-03-21T15:49:32;384.20;1408.00
70593;DHT22;58294;42.988;20.338;2023-03-21T15:56:56;384.00;1433.60
70593;DHT22;58294;42.988;20.338;2023-03-21T15:59:26;359.30;1433.60
70593;DHT22;58294;42.988;20.338;2023-03-21T16:01:52;359.30;1433.60
70593;DHT22;58294;42.988;20.338;2023-03-21T16:04:18;359.20;1433.60
70593;DHT22;58294;42.988;20.338;2023-03-21T16:07:17;359.10;1433.60
70593;DHT22;58294;42.988;20.338;2023-03-21T16:09:40;359.10;1433.60
70593;DHT22;58294;42.988;20.338;2023-03-21T16:12:09;359.10;1433.60
70593;DHT22;58294;42.988;20.338;2023-03-21T16:14:35;359.00;1459.20
70593;DHT22;58294;42.988;20.338;2023-03-21T16:17:11;359.00;1484.80
70593;DHT22;58294;42.988;20.338;2023-03-21T16:19:37;358.80;1484.80
70593;DHT22;58294;42.988;20.338;2023-03-21T16:22:07;358.70;1484.80
70593;DHT22;58294;42.988;20.338;2023-03-21T16:24:33;358.70;1484.80
70593;DHT22;58294;42.988;20.338;2023-03-21T16:26:59;358.70;1510.40